sensor_id;sensor_type;location;lat;lon;timestamp;pressure;altitude;pressure_sealevel;temperature;humidity
31239;BME280;17871;31.584;74.450;2022-12-18T00:00:32;98897.53;;;14.15;94.11
31239;BME280;17871;31.584;74.450;2022-12-18T00:03:01;98896.66;;;14.10;94.38
31239;BME280;17871;31.584;74.450;2022-12-18T00:05:31;98897.53;;;14.07;94.63
31239;BME280;17871;31.584;74.450;2022-12-18T00:08:02;98895.78;;;14.00;94.64
31239;BME280;17871;31.584;74.450;2022-12-18T00:10:36;98902.63;;;13.96;94.75
31239;BME280;17871;31.584;74.450;2022-12-18T00:13:06;98905.22;;;13.99;94.80
31239;BME280;17871;31.584;74.450;2022-12-18T00:15:38;98901.78;;;14.00;95.26
31239;BME280;17871;31.584;74.450;2022-12-18T00:18:09;98910.34;;;13.99;94.97
31239;BME280;17871;31.584;74.450;2022-12-18T00:20:42;98906.09;;;13.92;95.25
31239;BME280;17871;31.584;74.450;2022-12-18T00:23:12;98912.94;;;13.92;95.24
31239;BME280;17871;31.584;74.450;2022-12-18T00:25:42;98912.94;;;13.92;95.18
31239;BME280;17871;31.584;74.450;2022-12-18T00:28:11;98914.63;;;13.93;95.20
31239;BME280;17871;31.584;74.450;2022-12-18T00:30:40;98912.03;;;13.93;95.06
31239;BME280;17871;31.584;74.450;2022-12-18T00:33:10;98914.63;;;13.91;95.00
31239;BME280;17871;31.584;74.450;2022-12-18T00:35:40;98907.78;;;13.86;94.78
31239;BME280;17871;31.584;74.450;2022-12-18T00:38:09;98912.91;;;13.86;94.74
31239;BME280;17871;31.584;74.450;2022-12-18T00:40:39;98909.47;;;13.84;95.64
31239;BME280;17871;31.584;74.450;2022-12-18T00:43:09;98909.47;;;13.84;95.75
31239;BME280;17871;31.584;74.450;2022-12-18T00:45:38;98912.91;;;13.83;96.07
31239;BME280;17871;31.584;74.450;2022-12-18T00:48:10;98906.91;;;13.85;95.83
31239;BME280;17871;31.584;74.450;2022-12-18T00:50:40;98914.59;;;13.84;95.72
31239;BME280;17871;31.584;74.450;2022-12-18T00:53:09;98919.75;;;13.84;95.49
31239;BME280;17871;31.584;74.450;2022-12-18T00:55:42;98918.94;;;13.95;95.31
31239;BME280;17871;31.584;74.450;2022-12-18T00:58:13;98920.63;;;13.89;95.14
31239;BME280;17871;31.584;74.450;2022-12-18T01:00:43;98935.16;;;13.87;95.10
31239;BME280;17871;31.584;74.450;2022-12-18T01:03:17;98936.88;;;13.88;95.21
31239;BME280;17871;31.584;74.450;2022-12-18T01:05:48;98929.19;;;13.88;95.13
31239;BME280;17871;31.584;74.450;2022-12-18T01:08:19;98932.56;;;13.81;95.38
31239;BME280;17871;31.584;74.450;2022-12-18T01:10:53;98936.84;;;13.80;95.72
31239;BME280;17871;31.584;74.450;2022-12-18T01:13:27;98942.00;;;13.82;95.42
31239;BME280;17871;31.584;74.450;2022-12-18T01:15:57;98941.13;;;13.75;95.38
31239;BME280;17871;31.584;74.450;2022-12-18T01:18:28;98941.94;;;13.64;95.92
31239;BME280;17871;31.584;74.450;2022-12-18T01:20:59;98950.53;;;13.66;95.98
31239;BME280;17871;31.584;74.450;2022-12-18T01:23:29;98944.50;;;13.59;95.69
31239;BME280;17871;31.584;74.450;2022-12-18T01:26:12;98949.69;;;13.71;95.69
31239;BME280;17871;31.584;74.450;2022-12-18T01:28:43;98954.69;;;13.44;95.30
31239;BME280;17871;31.584;74.450;2022-12-18T01:31:25;98963.31;;;13.57;95.87
31239;BME280;17871;31.584;74.450;2022-12-18T01:33:57;98959.84;;;13.48;95.35
31239;BME280;17871;31.584;74.450;2022-12-18T01:36:28;98964.06;;;13.40;95.30
31239;BME280;17871;31.584;74.450;2022-12-18T01:39:01;98961.56;;;13.48;95.25
31239;BME280;17871;31.584;74.450;2022-12-18T01:41:34;98965.00;;;13.55;95.41
31239;BME280;17871;31.584;74.450;2022-12-18T01:47:43;98970.13;;;13.48;95.39
31239;BME280;17871;31.584;74.450;2022-12-18T01:50:22;98977.00;;;13.57;95.88
31239;BME280;17871;31.584;74.450;2022-12-18T01:53:14;98980.47;;;13.62;95.64
31239;BME280;17871;31.584;74.450;2022-12-18T01:55:49;98983.81;;;13.53;95.76
31239;BME280;17871;31.584;74.450;2022-12-18T01:58:36;98982.97;;;13.55;95.61
31239;BME280;17871;31.584;74.450;2022-12-18T02:01:10;98988.94;;;13.43;95.42
31239;BME280;17871;31.584;74.450;2022-12-18T02:03:42;98982.09;;;13.43;95.31
31239;BME280;17871;31.584;74.450;2022-12-18T02:06:29;98994.06;;;13.44;95.31
31239;BME280;17871;31.584;74.450;2022-12-18T02:09:52;98990.69;;;13.51;95.13
31239;BME280;17871;31.584;74.450;2022-12-18T02:12:23;99000.97;;;13.58;95.62
31239;BME280;17871;31.584;74.450;2022-12-18T02:14:59;99005.22;;;13.46;95.69
31239;BME280;17871;31.584;74.450;2022-12-18T02:17:36;99007.84;;;13.59;95.63
31239;BME280;17871;31.584;74.450;2022-12-18T02:28:41;99017.31;;;13.72;95.37
31239;BME280;17871;31.584;74.450;2022-12-18T02:31:16;99015.59;;;13.77;95.60
31239;BME280;17871;31.584;74.450;2022-12-18T02:33:51;99023.31;;;13.77;95.70
31239;BME280;17871;31.584;74.450;2022-12-18T02:36:28;99020.75;;;13.80;95.45
31239;BME280;17871;31.584;74.450;2022-12-18T02:39:01;99029.34;;;13.79;95.57
31239;BME280;17871;31.584;74.450;2022-12-18T02:41:32;99025.03;;;13.78;95.45
31239;BME280;17871;31.584;74.450;2022-12-18T02:44:09;99031.97;;;13.89;95.37
31239;BME280;17871;31.584;74.450;2022-12-18T02:46:50;99032.81;;;13.94;95.50
31239;BME280;17871;31.584;74.450;2022-12-18T02:52:25;99042.28;;;14.04;95.32
31239;BME280;17871;31.584;74.450;2022-12-18T02:55:17;99048.28;;;14.02;94.99
31239;BME280;17871;31.584;74.450;2022-12-18T02:58:42;99044.91;;;14.18;94.97
31239;BME280;17871;31.584;74.450;2022-12-18T03:04:50;99052.66;;;14.32;95.38
31239;BME280;17871;31.584;74.450;2022-12-18T03:07:35;99061.28;;;14.35;95.29
31239;BME280;17871;31.584;74.450;2022-12-18T03:10:14;99058.72;;;14.41;94.68
31239;BME280;17871;31.584;74.450;2022-12-18T03:13:02;99065.59;;;14.51;94.45
31239;BME280;17871;31.584;74.450;2022-12-18T03:15:55;99081.00;;;14.59;94.51
31239;BME280;17871;31.584;74.450;2022-12-18T03:18:52;99075.91;;;14.67;94.38
31239;BME280;17871;31.584;74.450;2022-12-18T03:21:38;99078.47;;;14.73;94.76
31239;BME280;17871;31.584;74.450;2022-12-18T03:24:11;99094.78;;;14.72;95.05
31239;BME280;17871;31.584;74.450;2022-12-18T03:26:46;99093.94;;;14.83;94.76
31239;BME280;17871;31.584;74.450;2022-12-18T03:29:22;99094.78;;;14.93;94.86
31239;BME280;17871;31.584;74.450;2022-12-18T03:32:01;99094.81;;;15.00;94.39
31239;BME280;17871;31.584;74.450;2022-12-18T03:34:35;99096.53;;;15.06;94.23
31239;BME280;17871;31.584;74.450;2022-12-18T03:37:09;99105.97;;;15.07;93.86
31239;BME280;17871;31.584;74.450;2022-12-18T03:39:41;99112.84;;;15.11;93.77
31239;BME280;17871;31.584;74.450;2022-12-18T03:45:11;99123.13;;;15.37;91.93
31239;BME280;17871;31.584;74.450;2022-12-18T03:50:59;99124.00;;;15.55;91.84
31239;BME280;17871;31.584;74.450;2022-12-18T03:56:14;99136.88;;;15.65;90.30
31239;BME280;17871;31.584;74.450;2022-12-18T03:58:46;99136.91;;;15.57;89.98
31239;BME280;17871;31.584;74.450;2022-12-18T04:01:26;99146.28;;;15.78;89.78
31239;BME280;17871;31.584;74.450;2022-12-18T04:04:00;99137.69;;;15.85;89.19
31239;BME280;17871;31.584;74.450;2022-12-18T04:06:35;99145.44;;;15.86;89.06
31239;BME280;17871;31.584;74.450;2022-12-18T04:09:07;99153.16;;;15.85;89.19
31239;BME280;17871;31.584;74.450;2022-12-18T04:11:42;99151.44;;;15.93;88.67
31239;BME280;17871;31.584;74.450;2022-12-18T04:14:14;99149.66;;;16.19;87.25
31239;BME280;17871;31.584;74.450;2022-12-18T04:16:49;99157.41;;;16.05;87.14
31239;BME280;17871;31.584;74.450;2022-12-18T04:19:28;99151.38;;;16.14;87.27
31239;BME280;17871;31.584;74.450;2022-12-18T04:22:00;99148.78;;;16.19;86.82
31239;BME280;17871;31.584;74.450;2022-12-18T04:24:37;99153.06;;;16.24;87.32
31239;BME280;17871;31.584;74.450;2022-12-18T04:27:18;99162.47;;;16.37;86.47
31239;BME280;17871;31.584;74.450;2022-12-18T04:29:50;99158.09;;;16.64;85.97
31239;BME280;17871;31.584;74.450;2022-12-18T04:32:20;99156.41;;;16.50;86.51
31239;BME280;17871;31.584;74.450;2022-12-18T04:34:51;99162.44;;;16.55;85.86
31239;BME280;17871;31.584;74.450;2022-12-18T04:37:23;99153.81;;;16.58;85.96
31239;BME280;17871;31.584;74.450;2022-12-18T04:39:53;99164.97;;;16.66;85.58
31239;BME280;17871;31.584;74.450;2022-12-18T04:42:32;99151.16;;;16.75;85.31
31239;BME280;17871;31.584;74.450;2022-12-18T04:45:02;99158.88;;;16.79;85.10
31239;BME280;17871;31.584;74.450;2022-12-18T04:47:33;99165.72;;;16.88;84.62
31239;BME280;17871;31.584;74.450;2022-12-18T04:50:04;99157.91;;;16.97;84.67
31239;BME280;17871;31.584;74.450;2022-12-18T04:52:35;99160.44;;;17.03;84.36
31239;BME280;17871;31.584;74.450;2022-12-18T04:55:05;99154.38;;;17.11;84.43
31239;BME280;17871;31.584;74.450;2022-12-18T04:57:36;99156.03;;;17.20;84.35
31239;BME280;17871;31.584;74.450;2022-12-18T05:00:07;99158.50;;;17.32;83.91
31239;BME280;17871;31.584;74.450;2022-12-18T05:02:37;99158.50;;;17.34;83.91
31239;BME280;17871;31.584;74.450;2022-12-18T05:05:08;99152.47;;;17.36;82.59
31239;BME280;17871;31.584;74.450;2022-12-18T05:07:39;99153.25;;;17.44;82.38
31239;BME280;17871;31.584;74.450;2022-12-18T05:10:10;99153.19;;;17.53;81.00
31239;BME280;17871;31.584;74.450;2022-12-18T05:12:39;99160.06;;;17.54;80.58
31239;BME280;17871;31.584;74.450;2022-12-18T05:15:30;99153.94;;;17.71;80.29
31239;BME280;17871;31.584;74.450;2022-12-18T05:18:01;99148.69;;;17.75;79.63
31239;BME280;17871;31.584;74.450;2022-12-18T05:20:32;99151.28;;;17.78;79.54
31239;BME280;17871;31.584;74.450;2022-12-18T05:23:02;99146.00;;;17.87;78.85
31239;BME280;17871;31.584;74.450;2022-12-18T05:25:33;99146.78;;;17.97;77.85
31239;BME280;17871;31.584;74.450;2022-12-18T05:28:05;99143.22;;;18.05;77.09
31239;BME280;17871;31.584;74.450;2022-12-18T05:30:37;99143.97;;;18.15;76.72
31239;BME280;17871;31.584;74.450;2022-12-18T05:33:08;99147.97;;;18.43;75.69
31239;BME280;17871;31.584;74.450;2022-12-18T05:35:38;99146.47;;;18.24;75.12
31239;BME280;17871;31.584;74.450;2022-12-18T05:38:07;99141.31;;;18.24;74.16
31239;BME280;17871;31.584;74.450;2022-12-18T05:40:41;99136.75;;;18.43;73.43
31239;BME280;17871;31.584;74.450;2022-12-18T05:43:12;99137.53;;;18.48;73.52
31239;BME280;17871;31.584;74.450;2022-12-18T05:45:49;99133.97;;;18.59;72.77
31239;BME280;17871;31.584;74.450;2022-12-18T05:48:20;99128.84;;;18.56;72.12
31239;BME280;17871;31.584;74.450;2022-12-18T05:50:50;99128.81;;;18.59;71.93
31239;BME280;17871;31.584;74.450;2022-12-18T05:53:21;99128.63;;;18.72;71.02
31239;BME280;17871;31.584;74.450;2022-12-18T05:55:50;99124.22;;;18.78;70.65
31239;BME280;17871;31.584;74.450;2022-12-18T05:58:20;99126.66;;;18.89;70.51
31239;BME280;17871;31.584;74.450;2022-12-18T06:00:50;99124.81;;;18.97;70.42
31239;BME280;17871;31.584;74.450;2022-12-18T06:03:20;99126.44;;;19.04;70.23
31239;BME280;17871;31.584;74.450;2022-12-18T06:05:50;99116.91;;;19.06;69.78
31239;BME280;17871;31.584;74.450;2022-12-18T06:08:20;99115.03;;;19.15;68.98
31239;BME280;17871;31.584;74.450;2022-12-18T06:10:52;99112.22;;;19.29;69.22
31239;BME280;17871;31.584;74.450;2022-12-18T06:13:22;99115.63;;;19.31;68.90
31239;BME280;17871;31.584;74.450;2022-12-18T06:15:53;99105.16;;;19.37;69.10
31239;BME280;17871;31.584;74.450;2022-12-18T06:18:24;99104.16;;;19.47;69.21
31239;BME280;17871;31.584;74.450;2022-12-18T06:20:59;99107.50;;;19.55;68.69
31239;BME280;17871;31.584;74.450;2022-12-18T06:23:30;99100.59;;;19.54;68.74
31239;BME280;17871;31.584;74.450;2022-12-18T06:26:07;99090.78;;;19.70;68.58
31239;BME280;17871;31.584;74.450;2022-12-18T06:28:40;99089.94;;;19.69;67.87
31239;BME280;17871;31.584;74.450;2022-12-18T06:31:11;99083.81;;;19.74;67.84
31239;BME280;17871;31.584;74.450;2022-12-18T06:33:41;99080.34;;;19.75;67.33
31239;BME280;17871;31.584;74.450;2022-12-18T06:36:13;99076.69;;;19.85;67.19
31239;BME280;17871;31.584;74.450;2022-12-18T06:38:44;99076.09;;;20.15;66.06
31239;BME280;17871;31.584;74.450;2022-12-18T06:41:20;99069.97;;;20.17;67.09
31239;BME280;17871;31.584;74.450;2022-12-18T06:43:51;99067.59;;;20.07;67.92
31239;BME280;17871;31.584;74.450;2022-12-18T06:46:27;99061.53;;;20.08;67.84
31239;BME280;17871;31.584;74.450;2022-12-18T06:48:59;99057.13;;;20.11;66.39
31239;BME280;17871;31.584;74.450;2022-12-18T06:51:30;99062.13;;;20.20;66.20
31239;BME280;17871;31.584;74.450;2022-12-18T06:54:02;99054.28;;;20.22;66.04
31239;BME280;17871;31.584;74.450;2022-12-18T06:56:34;99053.41;;;20.23;66.46
31239;BME280;17871;31.584;74.450;2022-12-18T06:59:05;99055.97;;;20.28;65.54
31239;BME280;17871;31.584;74.450;2022-12-18T07:01:35;99043.63;;;20.37;65.27
31239;BME280;17871;31.584;74.450;2022-12-18T07:04:04;99035.84;;;20.37;65.72
31239;BME280;17871;31.584;74.450;2022-12-18T07:06:34;99034.81;;;20.44;65.77
31239;BME280;17871;31.584;74.450;2022-12-18T07:09:06;99034.00;;;20.42;65.27
31239;BME280;17871;31.584;74.450;2022-12-18T07:11:36;99032.16;;;20.47;65.43
31239;BME280;17871;31.584;74.450;2022-12-18T07:14:05;99020.78;;;20.53;65.40
31239;BME280;17871;31.584;74.450;2022-12-18T07:16:35;99011.88;;;20.63;64.91
31239;BME280;17871;31.584;74.450;2022-12-18T07:19:05;99019.69;;;20.61;65.70
31239;BME280;17871;31.584;74.450;2022-12-18T07:21:34;99014.34;;;20.69;64.98
31239;BME280;17871;31.584;74.450;2022-12-18T07:24:04;99000.56;;;20.65;65.28
31239;BME280;17871;31.584;74.450;2022-12-18T07:26:34;98999.59;;;20.69;64.54
31239;BME280;17871;31.584;74.450;2022-12-18T07:29:04;98995.91;;;20.80;64.04
31239;BME280;17871;31.584;74.450;2022-12-18T07:31:34;98994.09;;;20.83;63.97
31239;BME280;17871;31.584;74.450;2022-12-18T07:34:03;98991.50;;;20.83;64.19
31239;BME280;17871;31.584;74.450;2022-12-18T07:36:33;98987.16;;;20.84;64.46
31239;BME280;17871;31.584;74.450;2022-12-18T07:39:03;98979.22;;;20.88;63.92
31239;BME280;17871;31.584;74.450;2022-12-18T07:41:32;98974.09;;;20.87;64.17
31239;BME280;17871;31.584;74.450;2022-12-18T07:44:12;98963.38;;;20.99;63.77
31239;BME280;17871;31.584;74.450;2022-12-18T07:46:41;98978.09;;;20.98;64.31
31239;BME280;17871;31.584;74.450;2022-12-18T07:49:11;98962.47;;;21.00;64.22
31239;BME280;17871;31.584;74.450;2022-12-18T07:51:41;98964.13;;;21.04;63.21
31239;BME280;17871;31.584;74.450;2022-12-18T07:54:11;98960.69;;;21.02;63.07
31239;BME280;17871;31.584;74.450;2022-12-18T07:56:40;98952.81;;;21.05;62.99
31239;BME280;17871;31.584;74.450;2022-12-18T07:59:10;98953.66;;;21.05;62.55
31239;BME280;17871;31.584;74.450;2022-12-18T08:01:39;98943.34;;;21.02;62.84
31239;BME280;17871;31.584;74.450;2022-12-18T08:04:10;98943.81;;;21.18;62.50
31239;BME280;17871;31.584;74.450;2022-12-18T08:06:39;98938.72;;;21.15;62.45
31239;BME280;17871;31.584;74.450;2022-12-18T08:09:14;98935.16;;;21.19;62.13
31239;BME280;17871;31.584;74.450;2022-12-18T08:11:44;98939.56;;;21.15;61.69
31239;BME280;17871;31.584;74.450;2022-12-18T08:14:13;98931.66;;;21.20;61.71
31239;BME280;17871;31.584;74.450;2022-12-18T08:16:43;98919.53;;;21.20;61.65
31239;BME280;17871;31.584;74.450;2022-12-18T08:19:13;98918.31;;;21.32;61.62
31239;BME280;17871;31.584;74.450;2022-12-18T08:21:42;98913.78;;;21.40;61.67
31239;BME280;17871;31.584;74.450;2022-12-18T08:24:12;98909.56;;;21.35;61.77
31239;BME280;17871;31.584;74.450;2022-12-18T08:26:42;98913.88;;;21.36;61.73
31239;BME280;17871;31.584;74.450;2022-12-18T08:29:31;98915.34;;;21.46;61.75
31239;BME280;17871;31.584;74.450;2022-12-18T08:32:02;98906.97;;;21.35;61.33
31239;BME280;17871;31.584;74.450;2022-12-18T08:34:32;98906.59;;;21.48;61.51
31239;BME280;17871;31.584;74.450;2022-12-18T08:37:01;98903.53;;;21.34;61.78
31239;BME280;17871;31.584;74.450;2022-12-18T08:39:31;98900.72;;;21.42;62.15
31239;BME280;17871;31.584;74.450;2022-12-18T08:42:01;98896.19;;;21.48;61.86
31239;BME280;17871;31.584;74.450;2022-12-18T08:44:49;98894.75;;;21.38;61.24
31239;BME280;17871;31.584;74.450;2022-12-18T08:47:18;98895.41;;;21.45;60.95
31239;BME280;17871;31.584;74.450;2022-12-18T08:49:48;98892.78;;;21.46;60.90
31239;BME280;17871;31.584;74.450;2022-12-18T08:52:18;98887.69;;;21.43;60.88
31239;BME280;17871;31.584;74.450;2022-12-18T08:54:47;98890.88;;;21.53;61.24
31239;BME280;17871;31.584;74.450;2022-12-18T08:57:16;98888.22;;;21.54;61.25
31239;BME280;17871;31.584;74.450;2022-12-18T08:59:46;98879.69;;;21.49;61.45
31239;BME280;17871;31.584;74.450;2022-12-18T09:02:17;98878.06;;;21.45;61.50
31239;BME280;17871;31.584;74.450;2022-12-18T09:04:47;98874.28;;;21.57;61.25
31239;BME280;17871;31.584;74.450;2022-12-18T09:07:24;98876.81;;;21.58;60.80
31239;BME280;17871;31.584;74.450;2022-12-18T09:09:54;98875.09;;;21.59;61.47
31239;BME280;17871;31.584;74.450;2022-12-18T09:12:24;98873.34;;;21.59;60.97
31239;BME280;17871;31.584;74.450;2022-12-18T09:14:57;98873.44;;;21.56;61.64
31239;BME280;17871;31.584;74.450;2022-12-18T09:17:26;98871.03;;;21.78;60.50
31239;BME280;17871;31.584;74.450;2022-12-18T09:19:56;98872.69;;;21.51;60.70
31239;BME280;17871;31.584;74.450;2022-12-18T09:22:25;98868.56;;;21.44;60.76
31239;BME280;17871;31.584;74.450;2022-12-18T09:24:54;98869.97;;;21.56;60.34
31239;BME280;17871;31.584;74.450;2022-12-18T09:27:25;98862.19;;;21.54;59.74
31239;BME280;17871;31.584;74.450;2022-12-18T09:29:54;98863.13;;;21.53;60.46
31239;BME280;17871;31.584;74.450;2022-12-18T09:32:24;98852.75;;;21.52;61.20
31239;BME280;17871;31.584;74.450;2022-12-18T09:34:54;98861.50;;;21.49;61.45
31239;BME280;17871;31.584;74.450;2022-12-18T09:37:23;98857.16;;;21.50;60.95
31239;BME280;17871;31.584;74.450;2022-12-18T09:39:53;98859.19;;;21.39;60.87
31239;BME280;17871;31.584;74.450;2022-12-18T09:42:22;98851.09;;;21.49;60.57
31239;BME280;17871;31.584;74.450;2022-12-18T09:44:53;98844.72;;;21.59;60.54
31239;BME280;17871;31.584;74.450;2022-12-18T09:47:30;98849.44;;;21.74;60.66
31239;BME280;17871;31.584;74.450;2022-12-18T09:50:05;98842.06;;;21.61;60.73
31239;BME280;17871;31.584;74.450;2022-12-18T09:52:48;98842.22;;;21.56;60.11
31239;BME280;17871;31.584;74.450;2022-12-18T09:55:25;98841.06;;;21.65;59.98
31239;BME280;17871;31.584;74.450;2022-12-18T10:00:42;98836.34;;;21.50;60.46
31239;BME280;17871;31.584;74.450;2022-12-18T10:03:14;98834.63;;;21.49;60.77
31239;BME280;17871;31.584;74.450;2022-12-18T10:09:03;98831.94;;;21.52;59.99
31239;BME280;17871;31.584;74.450;2022-12-18T10:11:49;98826.94;;;21.46;60.96
31239;BME280;17871;31.584;74.450;2022-12-18T10:20:18;98818.72;;;21.30;61.32
31239;BME280;17871;31.584;74.450;2022-12-18T10:24:01;98820.22;;;21.37;60.98
31239;BME280;17871;31.584;74.450;2022-12-18T10:26:09;98826.25;;;21.39;60.83
31239;BME280;17871;31.584;74.450;2022-12-18T10:28:41;98822.22;;;21.29;60.62
31239;BME280;17871;31.584;74.450;2022-12-18T10:31:23;98827.16;;;21.38;61.11
31239;BME280;17871;31.584;74.450;2022-12-18T10:33:56;98824.03;;;21.27;62.16
31239;BME280;17871;31.584;74.450;2022-12-18T10:36:25;98829.75;;;21.38;61.56
31239;BME280;17871;31.584;74.450;2022-12-18T10:39:15;98826.53;;;21.30;62.72
31239;BME280;17871;31.584;74.450;2022-12-18T10:41:45;98832.13;;;21.16;63.05
31239;BME280;17871;31.584;74.450;2022-12-18T10:44:23;98830.28;;;21.20;62.70
31239;BME280;17871;31.584;74.450;2022-12-18T10:47:04;98824.25;;;21.18;63.12
31239;BME280;17871;31.584;74.450;2022-12-18T10:49:50;98815.00;;;21.08;63.68
31239;BME280;17871;31.584;74.450;2022-12-18T10:52:22;98819.91;;;21.20;63.53
31239;BME280;17871;31.584;74.450;2022-12-18T10:54:55;98818.72;;;20.99;63.78
31239;BME280;17871;31.584;74.450;2022-12-18T10:57:37;98809.53;;;20.88;64.41
31239;BME280;17871;31.584;74.450;2022-12-18T11:00:27;98812.75;;;20.96;65.62
31239;BME280;17871;31.584;74.450;2022-12-18T11:02:57;98807.25;;;20.76;66.24
31239;BME280;17871;31.584;74.450;2022-12-18T11:05:32;98807.22;;;20.77;66.43
31239;BME280;17871;31.584;74.450;2022-12-18T11:08:03;98810.19;;;20.63;66.55
31239;BME280;17871;31.584;74.450;2022-12-18T11:10:39;98804.03;;;20.66;66.50
31239;BME280;17871;31.584;74.450;2022-12-18T11:15:46;98802.84;;;20.45;67.18
31239;BME280;17871;31.584;74.450;2022-12-18T11:18:27;98799.22;;;20.52;66.78
31239;BME280;17871;31.584;74.450;2022-12-18T11:21:09;98795.81;;;20.50;66.39
31239;BME280;17871;31.584;74.450;2022-12-18T11:26:16;98800.75;;;20.27;67.40
31239;BME280;17871;31.584;74.450;2022-12-18T11:28:51;98793.88;;;20.23;68.42
31239;BME280;17871;31.584;74.450;2022-12-18T11:31:24;98792.50;;;20.10;68.78
31239;BME280;17871;31.584;74.450;2022-12-18T11:34:14;98792.25;;;20.19;68.71
31239;BME280;17871;31.584;74.450;2022-12-18T11:36:58;98783.06;;;20.06;69.07
31239;BME280;17871;31.584;74.450;2022-12-18T11:39:40;98775.28;;;20.06;68.73
31239;BME280;17871;31.584;74.450;2022-12-18T11:50:26;98778.50;;;19.80;69.02
31239;BME280;17871;31.584;74.450;2022-12-18T11:52:57;98781.50;;;19.63;69.60
31239;BME280;17871;31.584;74.450;2022-12-18T12:01:34;98777.53;;;19.49;72.26
31239;BME280;17871;31.584;74.450;2022-12-18T12:04:27;98782.06;;;19.38;72.57
31239;BME280;17871;31.584;74.450;2022-12-18T12:07:36;98781.19;;;19.37;72.16
31239;BME280;17871;31.584;74.450;2022-12-18T12:10:45;98780.91;;;19.11;72.78
31239;BME280;17871;31.584;74.450;2022-12-18T12:16:06;98780.97;;;19.08;73.43
31239;BME280;17871;31.584;74.450;2022-12-18T12:27:35;98784.16;;;18.79;75.29
31239;BME280;17871;31.584;74.450;2022-12-18T12:38:46;98785.53;;;18.51;76.61
31239;BME280;17871;31.584;74.450;2022-12-18T12:41:32;98789.13;;;18.42;77.41
31239;BME280;17871;31.584;74.450;2022-12-18T12:47:00;98797.94;;;18.32;78.11
31239;BME280;17871;31.584;74.450;2022-12-18T12:49:33;98787.81;;;18.19;78.10
31239;BME280;17871;31.584;74.450;2022-12-18T12:52:34;98791.09;;;18.28;78.53
31239;BME280;17871;31.584;74.450;2022-12-18T12:55:07;98798.25;;;18.14;79.15
31239;BME280;17871;31.584;74.450;2022-12-18T12:58:00;98801.59;;;18.19;79.67
31239;BME280;17871;31.584;74.450;2022-12-18T13:00:44;98798.31;;;18.11;79.73
31239;BME280;17871;31.584;74.450;2022-12-18T13:09:23;98800.47;;;17.85;81.03
31239;BME280;17871;31.584;74.450;2022-12-18T13:11:53;98805.69;;;17.80;81.12
31239;BME280;17871;31.584;74.450;2022-12-18T13:14:49;98807.47;;;17.77;81.35
31239;BME280;17871;31.584;74.450;2022-12-18T13:17:24;98813.44;;;17.80;81.60
31239;BME280;17871;31.584;74.450;2022-12-18T13:20:07;98812.53;;;17.83;81.71
31239;BME280;17871;31.584;74.450;2022-12-18T13:22:48;98812.59;;;17.80;82.12
31239;BME280;17871;31.584;74.450;2022-12-18T13:25:35;98807.47;;;17.77;82.09
31239;BME280;17871;31.584;74.450;2022-12-18T13:28:12;98809.19;;;17.76;82.18
31239;BME280;17871;31.584;74.450;2022-12-18T13:30:53;98817.91;;;17.71;82.45
31239;BME280;17871;31.584;74.450;2022-12-18T13:36:16;98814.31;;;17.81;82.17
31239;BME280;17871;31.584;74.450;2022-12-18T13:38:46;98812.88;;;17.61;82.55
31239;BME280;17871;31.584;74.450;2022-12-18T13:41:26;98819.63;;;17.69;82.98
31239;BME280;17871;31.584;74.450;2022-12-18T13:44:11;98814.47;;;17.69;82.79
31239;BME280;17871;31.584;74.450;2022-12-18T13:46:45;98818.91;;;17.59;83.00
31239;BME280;17871;31.584;74.450;2022-12-18T13:49:44;98813.75;;;17.59;83.45
31239;BME280;17871;31.584;74.450;2022-12-18T13:52:23;98812.97;;;17.51;83.40
31239;BME280;17871;31.584;74.450;2022-12-18T13:54:56;98810.50;;;17.43;83.37
31239;BME280;17871;31.584;74.450;2022-12-18T13:57:28;98812.22;;;17.43;83.33
31239;BME280;17871;31.584;74.450;2022-12-18T14:00:19;98813.13;;;17.42;83.56
31239;BME280;17871;31.584;74.450;2022-12-18T14:02:49;98810.53;;;17.39;83.18
31239;BME280;17871;31.584;74.450;2022-12-18T14:05:28;98806.13;;;17.48;83.09
31239;BME280;17871;31.584;74.450;2022-12-18T14:08:13;98808.78;;;17.44;83.41
31239;BME280;17871;31.584;74.450;2022-12-18T14:10:46;98813.22;;;17.34;83.13
31239;BME280;17871;31.584;74.450;2022-12-18T14:13:40;98825.19;;;17.41;83.13
31239;BME280;17871;31.584;74.450;2022-12-18T14:16:14;98818.41;;;17.31;83.54
31239;BME280;17871;31.584;74.450;2022-12-18T14:18:56;98820.88;;;17.39;83.21
31239;BME280;17871;31.584;74.450;2022-12-18T14:21:46;98824.47;;;17.29;83.47
31239;BME280;17871;31.584;74.450;2022-12-18T14:24:19;98830.59;;;17.20;83.58
31239;BME280;17871;31.584;74.450;2022-12-18T14:26:51;98829.84;;;17.12;83.56
31239;BME280;17871;31.584;74.450;2022-12-18T14:29:29;98825.47;;;17.17;83.57
31239;BME280;17871;31.584;74.450;2022-12-18T14:32:13;98831.47;;;17.19;83.52
31239;BME280;17871;31.584;74.450;2022-12-18T14:34:53;98826.38;;;17.15;83.71
31239;BME280;17871;31.584;74.450;2022-12-18T14:37:27;98825.59;;;17.08;83.79
31239;BME280;17871;31.584;74.450;2022-12-18T14:40:02;98819.56;;;17.09;83.86
31239;BME280;17871;31.584;74.450;2022-12-18T14:42:37;98829.13;;;17.01;83.71
31239;BME280;17871;31.584;74.450;2022-12-18T14:45:35;98834.16;;;17.11;83.63
31239;BME280;17871;31.584;74.450;2022-12-18T14:51:00;98835.06;;;17.07;84.33
31239;BME280;17871;31.584;74.450;2022-12-18T14:53:41;98833.34;;;17.06;84.22
31239;BME280;17871;31.584;74.450;2022-12-18T14:59:00;98829.94;;;17.04;84.45
31239;BME280;17871;31.584;74.450;2022-12-18T15:01:39;98835.09;;;17.04;84.54
31239;BME280;17871;31.584;74.450;2022-12-18T15:04:33;98826.50;;;17.05;84.19
31239;BME280;17871;31.584;74.450;2022-12-18T15:07:20;98833.38;;;17.05;84.18